createdAt,value
2022-12-26T00:00:48.512Z,4.80
2022-12-26T00:03:16.986Z,5.22
2022-12-26T00:05:43.469Z,4.60
2022-12-26T00:08:09.933Z,4.43
2022-12-26T00:10:36.408Z,4.32
2022-12-26T00:13:37.082Z,4.20
2022-12-26T00:15:50.267Z,4.40
2022-12-26T00:18:16.765Z,4.32
2022-12-26T00:23:28.997Z,4.20
2022-12-26T00:25:55.370Z,4.47
2022-12-26T00:28:21.735Z,4.90
2022-12-26T00:30:48.087Z,4.13
2022-12-26T00:33:14.465Z,4.25
2022-12-26T00:35:40.856Z,4.68
2022-12-26T00:38:07.877Z,4.50
2022-12-26T00:40:34.220Z,4.47
2022-12-26T00:43:00.574Z,4.50
2022-12-26T00:45:27.429Z,4.70
2022-12-26T00:47:53.825Z,4.30
2022-12-26T00:50:20.247Z,4.35
2022-12-26T00:52:46.851Z,4.53
2022-12-26T00:55:13.379Z,4.38
2022-12-26T00:57:39.808Z,4.20
2022-12-26T01:00:06.758Z,4.60
2022-12-26T01:02:33.587Z,4.32
2022-12-26T01:05:00.378Z,4.32
2022-12-26T01:07:27.437Z,4.30
2022-12-26T01:09:53.893Z,4.40
2022-12-26T01:12:20.546Z,4.43
2022-12-26T01:14:47.337Z,4.00
2022-12-26T01:17:13.670Z,4.32
2022-12-26T01:19:39.989Z,4.53
2022-12-26T01:22:06.482Z,4.05
2022-12-26T01:24:34.001Z,4.70
2022-12-26T01:27:01.047Z,4.47
2022-12-26T01:29:27.354Z,4.28
2022-12-26T01:31:53.937Z,4.20
2022-12-26T01:34:20.560Z,4.03
2022-12-26T01:36:47.075Z,4.10
2022-12-26T01:39:13.387Z,4.20
2022-12-26T01:41:39.707Z,4.40
2022-12-26T01:44:06.247Z,4.60
2022-12-26T01:46:32.626Z,4.63
2022-12-26T01:48:59.682Z,4.25
2022-12-26T01:51:25.994Z,4.30
2022-12-26T01:53:52.539Z,4.35
2022-12-26T01:56:19.107Z,4.45
2022-12-26T01:58:45.411Z,3.97
2022-12-26T02:01:12.230Z,4.28
2022-12-26T02:03:39.349Z,4.30
2022-12-26T02:06:06.168Z,4.53
2022-12-26T02:08:33.544Z,4.35
2022-12-26T02:11:01.619Z,4.60
2022-12-26T02:13:28.135Z,4.47
2022-12-26T02:15:55.015Z,4.00
2022-12-26T02:18:22.489Z,4.18
2022-12-26T02:20:48.962Z,4.63
2022-12-26T02:23:16.618Z,4.20
2022-12-26T02:25:43.112Z,4.72
2022-12-26T02:28:09.873Z,4.50
2022-12-26T02:30:36.818Z,4.20
2022-12-26T02:33:03.143Z,4.45
2022-12-26T02:35:32.136Z,4.38
2022-12-26T02:37:58.483Z,4.43
2022-12-26T02:40:25.093Z,4.15
2022-12-26T02:42:51.751Z,4.43
2022-12-26T02:45:18.148Z,4.20
2022-12-26T02:47:46.685Z,4.25
2022-12-26T02:50:13.484Z,4.40
2022-12-26T02:52:39.795Z,4.30
2022-12-26T02:55:06.164Z,4.00
2022-12-26T02:57:32.808Z,3.90
2022-12-26T02:59:59.538Z,4.32
2022-12-26T03:02:25.972Z,4.13
2022-12-26T03:04:52.491Z,4.68
2022-12-26T03:07:18.998Z,4.28
2022-12-26T03:09:45.467Z,4.28
2022-12-26T03:12:11.784Z,4.15
2022-12-26T03:14:38.530Z,4.10
2022-12-26T03:17:05.493Z,4.10
2022-12-26T03:19:31.975Z,4.22
2022-12-26T03:21:58.550Z,4.18
2022-12-26T03:24:25.760Z,4.05
2022-12-26T03:26:52.211Z,4.30
2022-12-26T03:29:19.184Z,4.50
2022-12-26T03:31:46.065Z,4.13
2022-12-26T03:34:12.668Z,4.53
2022-12-26T03:36:39.014Z,4.00
2022-12-26T03:39:05.609Z,3.90
2022-12-26T03:41:32.122Z,4.25
2022-12-26T03:43:58.875Z,4.45
2022-12-26T03:46:25.721Z,4.10
2022-12-26T03:48:52.255Z,3.63
2022-12-26T03:51:19.178Z,4.07
2022-12-26T03:53:45.832Z,3.65
2022-12-26T03:56:12.338Z,4.20
2022-12-26T03:58:39.278Z,4.13
2022-12-26T04:01:06.105Z,3.85
2022-12-26T04:03:33.147Z,4.18
2022-12-26T04:06:00.459Z,3.72
2022-12-26T04:08:27.524Z,3.78
2022-12-26T04:10:54.375Z,3.47
2022-12-26T04:16:05.272Z,3.47
2022-12-26T04:18:32.413Z,3.80
2022-12-26T04:20:58.713Z,3.83
2022-12-26T04:23:25.381Z,3.67
2022-12-26T04:25:52.484Z,3.97
2022-12-26T04:28:18.807Z,4.35
2022-12-26T04:30:45.657Z,3.78
2022-12-26T04:33:12.072Z,3.65
2022-12-26T04:35:38.537Z,3.80
2022-12-26T04:38:05.778Z,3.70
2022-12-26T04:40:32.253Z,3.97
2022-12-26T04:42:59.163Z,3.50
2022-12-26T04:45:25.927Z,3.75
2022-12-26T04:47:52.257Z,3.85
2022-12-26T04:50:18.631Z,3.42
2022-12-26T04:52:45.035Z,3.80
2022-12-26T04:55:11.596Z,3.60
2022-12-26T04:57:37.923Z,3.55
2022-12-26T05:00:04.644Z,3.80
2022-12-26T05:02:33.383Z,3.35
2022-12-26T05:04:59.833Z,3.50
2022-12-26T05:07:26.268Z,3.30
2022-12-26T05:09:53.292Z,3.65
2022-12-26T05:12:19.928Z,3.78
2022-12-26T05:14:46.345Z,3.45
2022-12-26T05:17:13.422Z,4.00
2022-12-26T05:19:39.736Z,3.33
2022-12-26T05:22:06.358Z,3.97
2022-12-26T05:24:32.868Z,3.53
2022-12-26T05:26:59.552Z,3.70
2022-12-26T05:29:26.479Z,3.53
2022-12-26T05:31:53.247Z,3.65
2022-12-26T05:34:19.573Z,3.35
2022-12-26T05:36:45.843Z,3.40
2022-12-26T05:39:12.476Z,3.50
2022-12-26T05:41:39.437Z,3.92
2022-12-26T05:44:06.205Z,3.35
2022-12-26T05:46:33.213Z,3.08
2022-12-26T05:48:59.803Z,3.38
2022-12-26T05:51:27.300Z,3.53
2022-12-26T05:53:53.626Z,3.45
2022-12-26T05:56:20.049Z,3.08
2022-12-26T05:58:46.450Z,3.30
2022-12-26T06:01:13.188Z,3.10
2022-12-26T06:03:39.779Z,3.60
2022-12-26T06:06:06.339Z,3.70
2022-12-26T06:08:33.111Z,3.38
2022-12-26T06:10:59.976Z,3.30
2022-12-26T06:13:26.415Z,3.00
2022-12-26T06:15:56.172Z,3.15
2022-12-26T06:18:22.570Z,3.17
2022-12-26T06:20:49.817Z,3.33
2022-12-26T06:23:16.136Z,3.85
2022-12-26T06:25:42.879Z,3.35
2022-12-26T06:28:09.286Z,3.33
2022-12-26T06:30:36.038Z,3.10
2022-12-26T06:33:05.997Z,3.30
2022-12-26T06:35:33.002Z,3.42
2022-12-26T06:37:59.396Z,2.95
2022-12-26T06:40:28.395Z,3.63
2022-12-26T06:42:55.245Z,3.33
2022-12-26T06:45:22.493Z,2.80
2022-12-26T06:47:48.823Z,3.25
2022-12-26T06:50:15.652Z,3.20
2022-12-26T06:52:41.968Z,3.25
2022-12-26T06:55:08.602Z,3.30
2022-12-26T06:57:35.583Z,3.00
2022-12-26T07:00:02.175Z,3.38
2022-12-26T07:02:28.980Z,3.25
2022-12-26T07:04:55.634Z,3.38
2022-12-26T07:07:22.003Z,3.00
2022-12-26T07:09:48.721Z,3.17
2022-12-26T07:12:15.281Z,2.90
2022-12-26T07:14:41.765Z,2.88
2022-12-26T07:17:09.228Z,3.00
2022-12-26T07:19:36.367Z,3.58
2022-12-26T07:22:02.999Z,2.80
2022-12-26T07:24:29.407Z,3.35
2022-12-26T07:26:56.061Z,2.88
2022-12-26T07:29:22.415Z,3.00
2022-12-26T07:31:48.936Z,3.50
2022-12-26T07:34:15.383Z,2.70
2022-12-26T07:36:42.102Z,2.85
2022-12-26T07:39:08.765Z,2.60
2022-12-26T07:41:35.917Z,3.28
2022-12-26T07:44:03.761Z,3.45
2022-12-26T07:46:30.496Z,3.10
2022-12-26T07:48:56.974Z,2.50
2022-12-26T07:51:23.806Z,2.97
2022-12-26T07:56:34.561Z,3.25
2022-12-26T07:59:01.025Z,3.17
2022-12-26T08:01:27.865Z,3.22
2022-12-26T08:03:54.387Z,3.03
2022-12-26T08:06:20.716Z,3.22
2022-12-26T08:08:51.113Z,2.53
2022-12-26T08:13:44.265Z,2.67
2022-12-26T08:16:11.002Z,3.08
2022-12-26T08:18:37.810Z,2.72
2022-12-26T08:21:04.286Z,3.15
2022-12-26T08:23:31.068Z,2.80
2022-12-26T08:25:57.402Z,3.50
2022-12-26T08:28:23.898Z,3.00
2022-12-26T08:30:50.413Z,3.30
2022-12-26T08:33:16.748Z,3.20
2022-12-26T08:35:43.734Z,2.53
2022-12-26T08:38:10.113Z,3.20
2022-12-26T08:40:45.002Z,2.90
2022-12-26T08:43:30.257Z,2.60
2022-12-26T08:45:58.325Z,2.70
2022-12-26T08:48:24.695Z,2.90
2022-12-26T08:50:51.118Z,2.75
2022-12-26T08:53:17.969Z,2.60
2022-12-26T08:55:44.637Z,3.17
2022-12-26T08:58:11.217Z,2.80
2022-12-26T09:00:38.343Z,2.78
2022-12-26T09:03:05.256Z,2.97
2022-12-26T09:05:31.660Z,2.63
2022-12-26T09:07:58.052Z,2.50
2022-12-26T09:10:24.590Z,2.40
2022-12-26T09:12:51.909Z,2.78
2022-12-26T09:15:18.287Z,2.70
2022-12-26T09:17:44.633Z,2.88
2022-12-26T09:20:11.768Z,2.80
2022-12-26T09:22:38.486Z,2.72
2022-12-26T09:25:05.250Z,3.22
2022-12-26T09:27:31.784Z,3.08
2022-12-26T09:29:58.112Z,2.92
2022-12-26T09:32:24.960Z,2.95
2022-12-26T09:34:53.689Z,2.97
2022-12-26T09:37:22.493Z,3.00
2022-12-26T09:39:48.836Z,2.90
2022-12-26T09:42:15.234Z,2.92
2022-12-26T09:44:41.534Z,2.80
2022-12-26T09:47:08.242Z,2.92
2022-12-26T09:49:34.748Z,2.88
2022-12-26T09:52:01.538Z,2.70
2022-12-26T09:54:28.476Z,2.83
2022-12-26T09:57:03.428Z,2.88
2022-12-26T09:59:31.467Z,3.00
2022-12-26T10:01:58.006Z,2.85
2022-12-26T10:04:29.054Z,2.83
2022-12-26T10:06:56.651Z,2.80
2022-12-26T10:09:23.693Z,2.88
2022-12-26T10:11:50.684Z,2.75
2022-12-26T10:14:21.644Z,3.00
2022-12-26T10:16:48.458Z,2.63
2022-12-26T10:19:14.889Z,2.95
2022-12-26T10:21:41.357Z,2.92
2022-12-26T10:24:07.944Z,2.92
2022-12-26T10:26:34.750Z,2.70
2022-12-26T10:29:01.802Z,2.97
2022-12-26T10:31:28.408Z,3.13
2022-12-26T10:33:55.087Z,3.05
2022-12-26T10:36:21.645Z,2.95
2022-12-26T10:38:48.537Z,2.95
2022-12-26T10:41:15.237Z,2.78
2022-12-26T10:43:41.597Z,2.40
2022-12-26T10:46:07.940Z,2.80
2022-12-26T10:48:34.704Z,3.00
2022-12-26T10:51:01.598Z,2.97
2022-12-26T10:53:27.920Z,2.80
2022-12-26T10:55:54.447Z,2.83
2022-12-26T10:58:20.930Z,2.90
2022-12-26T11:00:47.400Z,3.00
2022-12-26T11:03:14.119Z,2.97
2022-12-26T11:06:06.482Z,2.88
2022-12-26T11:08:27.627Z,2.83
2022-12-26T11:10:54.314Z,2.72
2022-12-26T11:13:20.669Z,2.90
2022-12-26T11:15:47.442Z,3.00
2022-12-26T11:18:15.875Z,3.08
2022-12-26T11:20:42.627Z,2.67
2022-12-26T11:23:09.354Z,3.10
2022-12-26T11:25:36.003Z,3.00
2022-12-26T11:28:02.648Z,2.80
2022-12-26T11:30:29.189Z,3.05
2022-12-26T11:32:56.106Z,3.13
2022-12-26T11:35:22.815Z,3.10
2022-12-26T11:37:50.015Z,2.70
2022-12-26T11:40:16.576Z,3.08
2022-12-26T11:42:43.007Z,2.97
2022-12-26T11:45:09.390Z,2.78
2022-12-26T11:47:36.362Z,2.80
2022-12-26T11:50:02.709Z,2.75
2022-12-26T11:52:29.735Z,2.95
2022-12-26T11:54:56.186Z,2.80
2022-12-26T11:57:23.014Z,2.38
2022-12-26T11:59:49.287Z,3.00
2022-12-26T12:02:15.797Z,2.92
2022-12-26T12:04:42.173Z,2.90
2022-12-26T12:07:08.911Z,2.88
2022-12-26T12:09:35.677Z,2.67
2022-12-26T12:12:02.900Z,3.03
2022-12-26T12:14:29.278Z,2.53
2022-12-26T12:16:56.007Z,3.28
2022-12-26T12:19:23.283Z,3.00
2022-12-26T12:21:49.731Z,2.80
2022-12-26T12:24:16.607Z,3.00
2022-12-26T12:26:43.154Z,2.88
2022-12-26T12:29:09.582Z,2.90
2022-12-26T12:31:36.474Z,2.80
2022-12-26T12:34:03.874Z,2.92
2022-12-26T12:36:30.222Z,2.80
2022-12-26T12:38:56.902Z,2.70
2022-12-26T12:41:23.794Z,2.80
2022-12-26T12:43:50.443Z,3.00
2022-12-26T12:46:17.336Z,2.65
2022-12-26T12:48:45.116Z,2.65
2022-12-26T12:51:11.992Z,2.80
2022-12-26T12:53:38.860Z,2.78
2022-12-26T12:56:05.732Z,2.60
2022-12-26T12:58:32.482Z,2.53
2022-12-26T13:00:59.605Z,2.92
2022-12-26T13:03:26.344Z,2.75
2022-12-26T13:05:52.752Z,12.70
2022-12-26T13:08:19.497Z,160.85
2022-12-26T13:10:46.675Z,159.07
2022-12-26T13:13:13.586Z,160.45
2022-12-26T13:15:40.068Z,140.05
2022-12-26T13:18:07.259Z,113.75
2022-12-26T13:20:34.165Z,103.30
2022-12-26T13:23:01.289Z,97.47
2022-12-26T13:25:27.967Z,88.43
2022-12-26T13:27:54.419Z,82.35
2022-12-26T13:30:20.800Z,78.72
2022-12-26T13:32:48.180Z,75.97
2022-12-26T13:38:00.711Z,65.05
2022-12-26T13:40:28.052Z,69.18
2022-12-26T13:42:54.523Z,220.63
2022-12-26T13:45:20.909Z,240.30
2022-12-26T13:47:49.953Z,212.38
2022-12-26T13:50:16.894Z,194.57
2022-12-26T13:52:43.257Z,179.38
2022-12-26T13:55:09.879Z,166.07
2022-12-26T13:57:36.839Z,162.35
2022-12-26T14:00:03.925Z,151.68
2022-12-26T14:02:58.693Z,257.45
2022-12-26T14:05:19.740Z,270.90
2022-12-26T14:07:47.286Z,251.70
2022-12-26T14:13:02.517Z,223.77
2022-12-26T14:17:56.251Z,196.07
2022-12-26T14:20:22.879Z,186.20
2022-12-26T14:22:49.766Z,190.07
2022-12-26T14:25:17.466Z,186.90
2022-12-26T14:27:43.979Z,185.25
2022-12-26T14:32:57.246Z,178.38
2022-12-26T14:35:24.203Z,167.82
2022-12-26T14:37:51.315Z,167.18
2022-12-26T14:40:18.036Z,164.27
2022-12-26T14:42:44.553Z,158.20
2022-12-26T14:45:11.258Z,156.70
2022-12-26T14:47:38.043Z,153.35
2022-12-26T14:50:04.835Z,149.50
2022-12-26T14:52:34.520Z,152.45
2022-12-26T14:55:03.855Z,147.40
2022-12-26T14:57:32.270Z,152.65
2022-12-26T15:00:03.427Z,299.65
2022-12-26T15:02:30.933Z,494.27
2022-12-26T15:04:57.848Z,434.77
2022-12-26T15:07:24.431Z,369.33
2022-12-26T15:09:50.980Z,335.77
2022-12-26T15:12:17.776Z,318.83
2022-12-26T15:14:44.754Z,298.02
2022-12-26T15:17:11.467Z,288.15
2022-12-26T15:19:38.025Z,281.25
2022-12-26T15:22:05.282Z,273.17
2022-12-26T15:25:16.519Z,272.13
2022-12-26T15:27:19.099Z,256.58
2022-12-26T15:29:46.042Z,263.30
2022-12-26T15:32:13.180Z,251.98
2022-12-26T15:34:39.916Z,248.68
2022-12-26T15:37:07.497Z,227.52
2022-12-26T15:39:34.179Z,216.52
2022-12-26T15:42:01.168Z,217.77
2022-12-26T15:44:28.029Z,200.73
2022-12-26T15:46:54.536Z,200.52
2022-12-26T15:49:21.431Z,191.32
2022-12-26T15:51:55.413Z,184.18
2022-12-26T15:54:23.674Z,173.45
2022-12-26T15:56:50.495Z,254.70
2022-12-26T15:59:17.836Z,415.67
2022-12-26T16:01:44.518Z,338.45
2022-12-26T16:04:11.471Z,297.70
2022-12-26T16:06:38.596Z,271.45
2022-12-26T16:09:05.191Z,245.98
2022-12-26T16:11:32.436Z,291.75
2022-12-26T16:13:59.377Z,352.77
2022-12-26T16:16:26.409Z,355.38
2022-12-26T16:18:53.325Z,331.20
2022-12-26T16:24:07.681Z,304.30
2022-12-26T16:26:34.235Z,293.25
2022-12-26T16:29:00.732Z,350.05
2022-12-26T16:37:03.170Z,349.13
2022-12-26T16:39:30.039Z,348.27
2022-12-26T16:41:56.456Z,335.15
2022-12-26T16:44:28.319Z,332.50
2022-12-26T16:46:57.457Z,327.05
2022-12-26T16:49:23.874Z,321.90
2022-12-26T16:51:50.249Z,323.38
2022-12-26T16:54:17.600Z,314.85
2022-12-26T16:56:44.322Z,309.60
2022-12-26T16:59:15.467Z,312.45
2022-12-26T17:01:43.930Z,303.42
2022-12-26T17:04:10.545Z,303.38
2022-12-26T17:06:36.957Z,305.55
2022-12-26T17:09:03.397Z,323.08
2022-12-26T17:11:30.104Z,318.50
2022-12-26T17:13:56.928Z,311.17
2022-12-26T17:16:23.258Z,309.65
2022-12-26T17:18:49.745Z,299.00
2022-12-26T17:21:16.424Z,287.05
2022-12-26T17:23:43.981Z,273.10
2022-12-26T17:26:10.276Z,260.35
2022-12-26T17:28:37.492Z,242.15
2022-12-26T17:31:04.432Z,224.95
2022-12-26T17:33:31.034Z,214.48
2022-12-26T17:38:44.054Z,204.93
2022-12-26T17:41:12.395Z,201.60
2022-12-26T17:43:39.156Z,203.15
2022-12-26T17:46:06.691Z,199.43
2022-12-26T17:48:33.108Z,193.05
2022-12-26T17:51:00.101Z,190.90
2022-12-26T17:53:26.505Z,185.05
2022-12-26T17:55:53.361Z,182.77
2022-12-26T18:01:12.726Z,176.23
2022-12-26T18:06:07.567Z,174.40
2022-12-26T18:08:34.441Z,172.77
2022-12-26T18:11:01.027Z,167.80
2022-12-26T18:16:03.747Z,165.13
2022-12-26T18:18:30.623Z,161.32
2022-12-26T18:20:57.022Z,160.48
2022-12-26T18:23:24.017Z,158.50
2022-12-26T18:25:54.336Z,157.68
2022-12-26T18:28:21.223Z,154.23
2022-12-26T18:30:47.923Z,153.98
2022-12-26T18:33:14.760Z,150.32
2022-12-26T18:35:41.365Z,152.90
2022-12-26T18:38:08.461Z,149.00
2022-12-26T18:40:34.861Z,144.52
2022-12-26T18:43:01.649Z,147.07
2022-12-26T18:45:28.123Z,145.90
2022-12-26T18:47:54.963Z,141.32
2022-12-26T18:50:21.760Z,139.82
2022-12-26T18:52:53.343Z,134.82
2022-12-26T18:55:20.198Z,138.75
2022-12-26T18:57:46.588Z,136.30
2022-12-26T19:00:13.228Z,134.68
2022-12-26T19:02:40.137Z,130.48
2022-12-26T19:05:07.807Z,126.93
2022-12-26T19:07:34.823Z,126.93
2022-12-26T19:10:01.452Z,126.70
2022-12-26T19:12:28.553Z,124.63
2022-12-26T19:14:54.937Z,123.90
2022-12-26T19:17:21.315Z,119.97
2022-12-26T19:19:47.755Z,120.07
2022-12-26T19:22:14.070Z,119.35
2022-12-26T19:24:40.425Z,113.85
2022-12-26T19:27:07.641Z,115.93
2022-12-26T19:29:34.620Z,114.03
2022-12-26T19:32:01.061Z,114.75
2022-12-26T19:34:27.712Z,112.35
2022-12-26T19:36:54.646Z,111.15
2022-12-26T19:39:21.388Z,108.00
2022-12-26T19:41:47.674Z,105.43
2022-12-26T19:44:14.393Z,105.55
2022-12-26T19:46:40.729Z,102.63
2022-12-26T19:49:07.676Z,102.20
2022-12-26T19:51:34.048Z,102.70
2022-12-26T19:54:00.419Z,102.57
2022-12-26T19:56:26.736Z,100.45
2022-12-26T19:58:56.773Z,97.93
2022-12-26T20:03:50.678Z,97.30
2022-12-26T20:06:17.503Z,98.45
2022-12-26T20:08:44.728Z,94.80
2022-12-26T20:11:11.134Z,91.93
2022-12-26T20:13:37.498Z,91.63
2022-12-26T20:18:45.787Z,89.43
2022-12-26T20:21:13.124Z,90.15
2022-12-26T20:23:39.472Z,87.65
2022-12-26T20:26:05.754Z,86.95
2022-12-26T20:28:32.166Z,85.57
2022-12-26T20:30:58.596Z,85.53
2022-12-26T20:33:26.087Z,85.57
2022-12-26T20:35:52.507Z,82.25
2022-12-26T20:38:19.246Z,81.60
2022-12-26T20:40:50.083Z,81.80
2022-12-26T20:43:16.870Z,79.90
2022-12-26T20:45:43.314Z,80.40
2022-12-26T20:48:09.886Z,77.47
2022-12-26T20:50:36.217Z,79.43
2022-12-26T20:53:02.534Z,76.15
2022-12-26T20:55:28.983Z,73.50
2022-12-26T20:57:55.337Z,72.38
2022-12-26T21:00:21.622Z,75.10
2022-12-26T21:02:48.116Z,74.97
2022-12-26T21:05:14.575Z,72.22
2022-12-26T21:07:41.339Z,70.88
2022-12-26T21:10:07.735Z,73.03
2022-12-26T21:12:34.135Z,70.38
2022-12-26T21:15:00.644Z,71.93
2022-12-26T21:17:27.323Z,69.57
2022-12-26T21:19:53.977Z,68.95
2022-12-26T21:22:20.408Z,67.32
2022-12-26T21:24:47.044Z,66.18
2022-12-26T21:27:13.313Z,66.10
2022-12-26T21:29:39.837Z,61.70
2022-12-26T21:32:06.196Z,62.90
2022-12-26T21:34:32.489Z,63.45
2022-12-26T21:36:58.819Z,64.50
2022-12-26T21:39:25.389Z,61.78
2022-12-26T21:41:51.780Z,61.70
2022-12-26T21:44:18.087Z,59.33
2022-12-26T21:46:44.532Z,59.90
2022-12-26T21:49:11.248Z,56.10
2022-12-26T21:51:37.911Z,59.38
2022-12-26T21:54:04.379Z,57.90
2022-12-26T21:56:30.843Z,55.65
2022-12-26T21:58:57.253Z,55.65
2022-12-26T22:01:23.756Z,53.75
2022-12-26T22:03:50.146Z,51.97
2022-12-26T22:06:16.465Z,53.42
2022-12-26T22:08:43.091Z,50.65
2022-12-26T22:11:09.467Z,51.15
2022-12-26T22:13:36.011Z,50.92
2022-12-26T22:16:02.396Z,48.83
2022-12-26T22:18:29.227Z,50.45
2022-12-26T22:20:55.590Z,51.00
2022-12-26T22:23:21.891Z,49.35
2022-12-26T22:25:48.181Z,47.60
2022-12-26T22:28:20.159Z,47.58
2022-12-26T22:30:49.487Z,45.72
2022-12-26T22:33:15.898Z,46.33
2022-12-26T22:35:42.264Z,45.33
2022-12-26T22:38:08.883Z,45.15
2022-12-26T22:40:35.486Z,45.58
2022-12-26T22:43:02.470Z,44.25
2022-12-26T22:45:28.857Z,44.42
2022-12-26T22:47:55.296Z,43.92
2022-12-26T22:50:21.840Z,43.17
2022-12-26T22:52:48.780Z,41.97
2022-12-26T22:55:15.240Z,40.72
2022-12-26T22:57:41.664Z,41.88
2022-12-26T23:00:09.685Z,40.30
2022-12-26T23:02:37.205Z,39.20
2022-12-26T23:05:04.261Z,38.85
2022-12-26T23:07:31.605Z,39.00
2022-12-26T23:09:57.932Z,38.85
2022-12-26T23:12:24.334Z,37.60
2022-12-26T23:14:50.698Z,37.83
2022-12-26T23:17:17.841Z,36.33
2022-12-26T23:19:44.319Z,37.88
2022-12-26T23:22:11.110Z,35.75
2022-12-26T23:24:37.842Z,36.35
2022-12-26T23:27:11.692Z,35.17
2022-12-26T23:29:38.193Z,34.03
2022-12-26T23:32:04.926Z,34.20
2022-12-26T23:34:31.727Z,35.08
2022-12-26T23:36:58.585Z,34.05
2022-12-26T23:39:25.283Z,32.50
2022-12-26T23:41:51.746Z,32.63
2022-12-26T23:44:18.288Z,31.88
2022-12-26T23:46:44.640Z,31.10
2022-12-26T23:49:11.367Z,31.48
2022-12-26T23:51:38.327Z,31.33
2022-12-26T23:54:05.137Z,30.52
2022-12-26T23:56:31.583Z,30.27
2022-12-26T23:58:57.930Z,31.15
